Date,TemperatureHighF,TemperatureAvgF,TemperatureLowF,DewpointHighF,DewpointAvgF,DewpointLowF,HumidityHigh,HumidityAvg,HumidityLow,PressureMaxIn,PressureMinIn,WindSpeedMaxMPH,WindSpeedAvgMPH,GustSpeedMaxMPH,PrecipitationSumIn
2013-1-1,41.9,36.6,31.5,32.0,28.9,20.0,88,74,51,28.23,28.11,5,1,13,0.00
2013-1-2,39.3,31.6,22.1,30.0,19.6,10.0,89,64,34,28.38,28.18,5,1,10,0.00
2013-1-3,40.4,27.3,14.3,19.0,16.5,12.0,92,67,38,28.39,28.30,7,1,17,0.00
2013-1-4,36.5,29.7,23.0,22.0,19.2,17.0,80,65,52,28.41,28.34,10,3,17,0.00
2013-1-5,47.8,32.3,19.7,29.0,21.1,16.0,87,67,28,28.54,28.34,6,0,11,0.00
2013-1-6,44.3,35.7,25.4,30.0,26.9,22.0,91,71,54,28.37,28.23,9,1,14,0.00
2013-1-7,44.5,33.1,21.1,30.0,24.4,19.0,94,72,44,28.62,28.38,6,1,10,0.00
2013-1-8,54.3,31.0,18.6,32.0,23.7,17.0,96,79,34,28.58,28.50,6,1,9,0.00
2013-1-9,60.1,38.1,20.4,46.0,32.4,19.0,96,81,58,28.65,28.46,8,1,19,0.00
2013-1-10,57.5,38.1,24.5,37.0,30.1,23.0,97,77,35,28.78,28.61,2,0,4,0.00
2013-1-11,48.0,41.4,31.6,45.0,36.9,30.0,97,85,59,28.60,28.30,14,2,17,0.04
2013-1-12,72.7,50.9,36.2,56.0,45.8,36.0,98,85,50,28.36,28.29,10,0,10,0.00
2013-1-13,69.3,58.7,43.1,57.0,52.2,42.0,99,80,56,28.30,28.18,9,2,15,0.00
2013-1-14,61.5,51.1,37.3,56.0,45.0,36.0,95,80,67,28.50,28.21,6,1,11,0.23
2013-1-15,38.1,35.7,33.1,37.0,34.5,32.0,97,95,92,28.51,28.30,3,0,8,0.67
2013-1-16,49.7,40.4,33.1,46.0,37.9,32.0,98,91,77,28.30,28.03,5,1,7,0.57
2013-1-17,43.9,37.5,32.6,39.0,28.4,22.0,89,70,50,28.32,28.21,5,0,13,0.00
2013-1-18,41.7,30.7,22.7,23.0,14.4,3.0,82,54,21,28.62,28.33,7,1,17,0.00
2013-1-19,55.9,36.7,22.1,28.0,20.9,17.0,86,58,25,28.55,28.17,10,2,12,0.00
2013-1-20,50.5,41.6,30.2,30.0,18.4,-2.0,71,42,18,28.28,28.10,14,2,28,0.00
2013-1-21,43.4,28.7,18.0,21.0,12.6,6.0,85,55,25,28.27,28.01,13,2,22,0.00
2013-1-22,20.7,14.3,8.1,9.0,-3.2,-7.0,62,47,32,28.40,28.16,12,3,21,0.00
2013-1-23,24.8,16.7,8.4,16.0,1.8,-7.0,88,55,26,28.43,28.21,9,2,17,0.00
2013-1-24,22.2,15.7,4.7,17.0,7.5,1.0,91,72,45,28.65,28.18,8,1,13,0.00
2013-1-25,30.6,16.0,4.0,23.0,9.4,0.0,90,76,55,28.64,28.17,16,3,21,0.00
2013-1-26,32.4,28.2,25.5,23.0,18.6,16.0,76,67,59,28.58,28.18,9,1,15,0.00
2013-1-27,42.1,28.8,12.9,25.0,19.4,11.0,92,70,42,28.70,28.57,7,1,10,0.01
2013-1-28,54.4,40.6,31.1,46.0,36.4,24.0,95,85,68,28.56,28.30,8,1,12,0.11
2013-1-29,72.9,52.7,41.0,55.0,47.1,39.0,98,84,51,28.37,28.18,8,1,13,0.01
2013-1-30,63.9,55.8,42.8,59.0,52.9,42.0,98,90,79,28.18,27.57,17,4,29,1.17
2013-1-31,51.2,33.0,26.6,49.0,23.9,15.0,93,70,57,28.08,27.51,12,3,26,0.63